createdAt,value
2022-09-20T00:00:38.656Z,12.37
2022-09-20T00:02:41.527Z,12.34
2022-09-20T00:04:44.456Z,12.37
2022-09-20T00:06:47.251Z,12.38
2022-09-20T00:08:51.904Z,12.38
2022-09-20T00:10:58.430Z,12.21
2022-09-20T00:13:01.274Z,12.26
2022-09-20T00:15:04.321Z,12.27
2022-09-20T00:17:07.125Z,12.29
2022-09-20T00:19:17.258Z,12.29
2022-09-20T00:21:23.538Z,12.31
2022-09-20T00:23:26.716Z,12.30
2022-09-20T00:25:30.835Z,12.34
2022-09-20T00:27:33.621Z,12.30
2022-09-20T00:29:36.600Z,12.26
2022-09-20T00:31:41.350Z,12.25
2022-09-20T00:34:02.161Z,12.16
2022-09-20T00:36:05.245Z,12.13
2022-09-20T00:38:08.006Z,12.14
2022-09-20T00:40:13.679Z,12.16
2022-09-20T00:42:17.820Z,12.14
2022-09-20T00:44:43.457Z,12.16
2022-09-20T00:46:46.883Z,12.00
2022-09-20T00:48:51.923Z,12.04
2022-09-20T00:50:58.527Z,12.09
2022-09-20T00:53:06.817Z,12.08
2022-09-20T00:55:10.176Z,12.08
2022-09-20T00:57:13.324Z,12.10
2022-09-20T00:59:20.868Z,12.11
2022-09-20T01:01:23.684Z,12.11
2022-09-20T01:03:31.410Z,12.13
2022-09-20T01:05:35.544Z,12.13
2022-09-20T01:07:38.784Z,12.10
2022-09-20T01:09:41.525Z,12.09
2022-09-20T01:11:44.828Z,12.10
2022-09-20T01:13:47.570Z,12.09
2022-09-20T01:15:52.906Z,12.10
2022-09-20T01:17:58.299Z,12.09
2022-09-20T01:20:18.318Z,12.12
2022-09-20T01:22:26.754Z,12.09
2022-09-20T01:24:39.480Z,12.11
2022-09-20T01:27:06.313Z,12.09
2022-09-20T01:29:22.192Z,12.08
2022-09-20T01:31:27.873Z,12.08
2022-09-20T01:33:37.551Z,12.07
2022-09-20T01:35:42.451Z,12.08
2022-09-20T01:38:00.481Z,12.08
2022-09-20T01:40:10.745Z,12.12
2022-09-20T01:42:15.484Z,12.14
2022-09-20T01:44:25.501Z,12.17
2022-09-20T01:46:32.164Z,12.18
2022-09-20T01:48:38.874Z,12.17
2022-09-20T01:51:03.177Z,12.19
2022-09-20T01:53:33.461Z,12.20
2022-09-20T01:56:18.572Z,12.22
2022-09-20T01:59:19.766Z,12.20
2022-09-20T02:01:56.780Z,12.20
2022-09-20T02:04:36.302Z,12.23
2022-09-20T02:06:51.038Z,12.27
2022-09-20T02:09:34.123Z,12.28
2022-09-20T02:11:52.804Z,12.30
2022-09-20T02:14:32.069Z,12.31
2022-09-20T02:16:49.255Z,12.29
2022-09-20T02:19:11.584Z,12.30
2022-09-20T02:21:30.906Z,12.30
2022-09-20T02:23:42.474Z,12.29
2022-09-20T02:25:59.818Z,12.31
2022-09-20T02:28:14.567Z,12.33
2022-09-20T02:30:30.456Z,12.33
2022-09-20T02:32:51.415Z,12.35
2022-09-20T02:35:26.768Z,12.31
2022-09-20T02:37:46.570Z,12.25
2022-09-20T02:40:05.243Z,12.30
2022-09-20T02:42:14.165Z,12.33
2022-09-20T02:44:26.003Z,12.33
2022-09-20T02:46:33.602Z,12.37
2022-09-20T02:48:46.490Z,12.37
2022-09-20T02:51:00.179Z,12.37
2022-09-20T02:53:13.386Z,12.37
2022-09-20T02:55:19.775Z,12.36
2022-09-20T02:57:29.622Z,12.37
2022-09-20T02:59:41.449Z,12.40
2022-09-20T03:01:51.511Z,12.40
2022-09-20T03:04:09.035Z,12.52
2022-09-20T03:06:21.964Z,12.44
2022-09-20T03:08:35.914Z,12.43
2022-09-20T03:10:48.547Z,12.41
2022-09-20T03:13:05.106Z,12.53
2022-09-20T03:15:20.903Z,12.38
2022-09-20T03:17:32.350Z,12.34
2022-09-20T03:19:49.286Z,12.32
2022-09-20T03:21:58.340Z,12.32
2022-09-20T03:24:10.006Z,12.26
2022-09-20T03:26:22.887Z,12.28
2022-09-20T03:28:38.947Z,12.38
2022-09-20T03:30:54.513Z,12.32
2022-09-20T03:33:08.403Z,12.27
2022-09-20T03:35:27.950Z,12.30
2022-09-20T03:37:51.833Z,12.30
2022-09-20T03:40:20.405Z,12.28
2022-09-20T03:42:26.839Z,12.22
2022-09-20T03:45:06.546Z,12.16
2022-09-20T03:47:23.778Z,12.08
2022-09-20T03:49:46.060Z,12.10
2022-09-20T03:51:59.954Z,12.10
2022-09-20T03:54:34.135Z,12.05
2022-09-20T03:57:07.333Z,11.99
2022-09-20T03:59:47.670Z,11.95
2022-09-20T04:02:07.082Z,11.93
2022-09-20T04:04:20.765Z,11.91
2022-09-20T04:06:48.825Z,11.79
2022-09-20T04:09:20.560Z,11.75
2022-09-20T04:11:30.359Z,11.72
2022-09-20T04:13:37.405Z,11.71
2022-09-20T04:15:47.513Z,11.71
2022-09-20T04:17:58.055Z,11.67
2022-09-20T04:20:06.749Z,11.61
2022-09-20T04:22:09.978Z,11.56
2022-09-20T04:24:22.632Z,11.45
2022-09-20T04:26:29.230Z,11.42
2022-09-20T04:28:40.526Z,11.40
2022-09-20T04:30:44.241Z,11.36
2022-09-20T04:32:52.923Z,11.40
2022-09-20T04:35:19.963Z,11.47
2022-09-20T04:37:29.702Z,11.51
2022-09-20T04:39:43.310Z,11.51
2022-09-20T04:42:30.147Z,11.47
2022-09-20T04:45:07.858Z,11.42
2022-09-20T04:47:33.770Z,11.37
2022-09-20T04:50:34.416Z,11.37
2022-09-20T04:53:15.585Z,11.33
2022-09-20T04:55:49.484Z,11.24
2022-09-20T04:58:43.025Z,11.14
2022-09-20T05:01:02.486Z,11.08
2022-09-20T05:03:37.993Z,11.08
2022-09-20T05:06:05.102Z,11.00
2022-09-20T05:08:40.578Z,11.00
2022-09-20T05:11:14.831Z,10.99
2022-09-20T05:13:31.288Z,10.95
2022-09-20T05:15:43.375Z,10.93
2022-09-20T05:18:10.820Z,10.97
2022-09-20T05:20:37.272Z,11.02
2022-09-20T05:22:56.991Z,10.98
2022-09-20T05:25:09.142Z,10.98
2022-09-20T05:27:30.581Z,11.02
2022-09-20T05:29:42.361Z,11.06
2022-09-20T05:31:53.234Z,11.10
2022-09-20T05:34:05.791Z,11.14
2022-09-20T05:36:16.409Z,11.17
2022-09-20T05:40:50.026Z,11.14
2022-09-20T05:43:01.331Z,11.15
2022-09-20T05:45:17.942Z,11.18
2022-09-20T05:47:30.262Z,11.17
2022-09-20T05:49:44.964Z,11.15
2022-09-20T05:52:06.427Z,11.14
2022-09-20T05:54:26.785Z,11.18
2022-09-20T05:56:42.435Z,11.23
2022-09-20T05:59:02.340Z,11.27
2022-09-20T06:01:10.975Z,11.33
2022-09-20T06:03:22.034Z,11.35
2022-09-20T06:05:37.437Z,11.43
2022-09-20T06:08:20.310Z,11.46
2022-09-20T06:10:43.237Z,11.44
2022-09-20T06:12:56.234Z,11.53
2022-09-20T06:15:11.714Z,11.62
2022-09-20T06:17:28.779Z,11.69
2022-09-20T06:19:40.115Z,11.75
2022-09-20T06:21:51.600Z,11.83
2022-09-20T06:23:59.474Z,11.89
2022-09-20T06:26:07.732Z,11.90
2022-09-20T06:28:17.093Z,11.96
2022-09-20T06:30:25.918Z,11.98
2022-09-20T06:32:28.711Z,12.03
2022-09-20T06:34:31.700Z,12.10
2022-09-20T06:36:54.785Z,12.28
2022-09-20T06:39:24.990Z,12.31
2022-09-20T06:41:30.465Z,12.37
2022-09-20T06:43:33.899Z,12.28
2022-09-20T06:45:38.254Z,12.32
2022-09-20T06:47:41.332Z,12.27
2022-09-20T06:49:46.965Z,12.26
2022-09-20T06:51:50.672Z,12.26
2022-09-20T06:53:57.131Z,12.36
2022-09-20T06:56:01.662Z,12.33
2022-09-20T06:58:04.665Z,12.43
2022-09-20T07:00:11.462Z,12.52
2022-09-20T07:02:15.574Z,12.43
2022-09-20T07:04:18.352Z,12.45
2022-09-20T07:06:21.252Z,12.53
2022-09-20T07:08:23.978Z,12.62
2022-09-20T07:10:29.036Z,12.71
2022-09-20T07:12:33.489Z,12.62
2022-09-20T07:14:36.538Z,12.44
2022-09-20T07:16:39.994Z,12.38
2022-09-20T07:18:44.789Z,12.34
2022-09-20T07:20:47.743Z,12.22
2022-09-20T07:22:51.564Z,12.30
2022-09-20T07:24:54.302Z,12.38
2022-09-20T07:26:58.915Z,12.61
2022-09-20T07:29:02.378Z,12.68
2022-09-20T07:31:05.332Z,12.68
2022-09-20T07:33:09.859Z,12.71
2022-09-20T07:35:14.559Z,12.74
2022-09-20T07:37:18.296Z,12.93
2022-09-20T07:39:21.084Z,12.90
2022-09-20T07:41:23.875Z,12.81
2022-09-20T07:43:27.028Z,12.82
2022-09-20T07:45:31.072Z,12.78
2022-09-20T07:47:35.417Z,12.69
2022-09-20T07:49:38.492Z,12.78
2022-09-20T07:51:42.581Z,12.84
2022-09-20T07:53:45.370Z,12.86
2022-09-20T07:55:58.095Z,13.03
2022-09-20T07:58:00.899Z,13.08
2022-09-20T08:00:05.297Z,13.10
2022-09-20T08:02:16.858Z,13.17
2022-09-20T08:04:19.689Z,13.23
2022-09-20T08:06:22.480Z,13.41
2022-09-20T08:08:26.589Z,13.65
2022-09-20T08:10:29.418Z,13.70
2022-09-20T08:14:55.584Z,13.60
2022-09-20T08:16:59.724Z,13.54
2022-09-20T08:19:03.592Z,13.61
2022-09-20T08:21:07.583Z,13.65
2022-09-20T08:23:23.555Z,13.63
2022-09-20T08:25:28.106Z,13.71
2022-09-20T08:27:31.695Z,13.61
2022-09-20T08:29:34.841Z,13.71
2022-09-20T08:31:40.207Z,13.83
2022-09-20T08:33:44.011Z,13.74
2022-09-20T08:35:49.656Z,13.70
2022-09-20T08:37:55.884Z,13.75
2022-09-20T08:39:59.415Z,13.72
2022-09-20T08:42:11.770Z,13.77
2022-09-20T08:44:19.560Z,13.82
2022-09-20T08:46:28.842Z,13.90
2022-09-20T08:48:34.689Z,13.86
2022-09-20T08:50:37.984Z,13.78
2022-09-20T08:52:42.665Z,13.81
2022-09-20T08:54:45.620Z,13.79
2022-09-20T08:56:49.845Z,13.82
2022-09-20T08:58:56.451Z,13.77
2022-09-20T09:01:00.079Z,13.86
2022-09-20T09:03:07.183Z,13.95
2022-09-20T09:05:28.205Z,14.01
2022-09-20T09:07:31.933Z,14.22
2022-09-20T09:09:38.035Z,14.39
2022-09-20T09:11:45.767Z,14.52
2022-09-20T09:13:57.882Z,14.53
2022-09-20T09:16:03.706Z,14.47
2022-09-20T09:18:10.355Z,14.60
2022-09-20T09:20:21.556Z,14.77
2022-09-20T09:22:29.472Z,14.78
2022-09-20T09:24:32.348Z,14.83
2022-09-20T09:26:37.964Z,14.96
2022-09-20T09:28:40.673Z,15.01
2022-09-20T09:30:46.655Z,15.01
2022-09-20T09:32:49.403Z,14.79
2022-09-20T09:34:52.310Z,14.65
2022-09-20T09:36:56.315Z,14.61
2022-09-20T09:39:16.136Z,14.58
2022-09-20T09:41:26.030Z,14.75
2022-09-20T09:43:31.440Z,14.56
2022-09-20T09:45:38.699Z,14.43
2022-09-20T09:47:43.275Z,14.43
2022-09-20T09:50:01.018Z,14.43
2022-09-20T09:52:14.706Z,14.66
2022-09-20T09:54:19.730Z,14.47
2022-09-20T09:56:44.067Z,14.41
2022-09-20T09:59:01.830Z,14.46
2022-09-20T10:01:12.638Z,14.45
2022-09-20T10:03:39.941Z,14.42
2022-09-20T10:05:54.995Z,14.32
2022-09-20T10:08:06.546Z,14.29
2022-09-20T10:10:21.981Z,14.41
2022-09-20T10:12:47.585Z,14.89
2022-09-20T10:15:01.384Z,15.14
2022-09-20T10:17:22.018Z,15.46
2022-09-20T10:19:44.059Z,15.79
2022-09-20T10:21:56.162Z,16.05
2022-09-20T10:24:09.490Z,16.20
2022-09-20T10:26:26.933Z,16.03
2022-09-20T10:28:50.340Z,15.86
2022-09-20T10:31:04.757Z,15.65
2022-09-20T10:33:18.861Z,15.42
2022-09-20T10:35:30.896Z,15.36
2022-09-20T10:37:49.212Z,15.30
2022-09-20T10:40:00.036Z,15.24
2022-09-20T10:42:31.931Z,15.16
2022-09-20T10:44:47.873Z,15.07
2022-09-20T10:46:58.067Z,14.94
2022-09-20T10:49:08.632Z,14.88
2022-09-20T10:51:25.241Z,14.97
2022-09-20T10:53:39.316Z,14.82
2022-09-20T10:55:50.403Z,14.89
2022-09-20T10:58:05.403Z,14.94
2022-09-20T11:00:21.312Z,14.97
2022-09-20T11:02:41.869Z,14.59
2022-09-20T11:05:03.027Z,14.21
2022-09-20T11:07:14.434Z,13.86
2022-09-20T11:09:21.668Z,13.71
2022-09-20T11:11:29.154Z,13.86
2022-09-20T11:13:37.251Z,14.05
2022-09-20T11:15:45.884Z,14.33
2022-09-20T11:17:59.662Z,14.46
2022-09-20T11:20:11.993Z,14.37
2022-09-20T11:22:21.297Z,14.23
2022-09-20T11:24:33.179Z,14.17
2022-09-20T11:26:40.986Z,14.11
2022-09-20T11:28:48.966Z,14.13
2022-09-20T11:31:00.165Z,14.09
2022-09-20T11:33:13.870Z,14.07
2022-09-20T11:35:26.901Z,14.09
2022-09-20T11:37:37.603Z,14.03
2022-09-20T11:39:46.213Z,14.04
2022-09-20T11:41:53.314Z,14.13
2022-09-20T11:44:00.342Z,14.15
2022-09-20T11:46:07.667Z,14.43
2022-09-20T11:48:18.061Z,14.45
2022-09-20T11:50:44.280Z,14.48
2022-09-20T11:53:00.897Z,14.42
2022-09-20T11:55:27.999Z,14.24
2022-09-20T11:57:31.226Z,14.56
2022-09-20T11:59:37.858Z,14.77
2022-09-20T12:01:44.220Z,14.89
2022-09-20T12:04:04.091Z,14.86
2022-09-20T12:06:27.391Z,15.13
2022-09-20T12:08:33.421Z,15.13
2022-09-20T12:10:40.265Z,15.25
2022-09-20T12:12:47.036Z,15.31
2022-09-20T12:14:56.088Z,15.65
2022-09-20T12:16:59.462Z,15.79
2022-09-20T12:19:03.912Z,15.82
2022-09-20T12:21:17.046Z,15.76
2022-09-20T12:24:02.495Z,15.52
2022-09-20T12:26:08.311Z,15.38
2022-09-20T12:28:15.935Z,15.22
2022-09-20T12:30:21.495Z,15.06
2022-09-20T12:32:50.537Z,15.13
2022-09-20T12:34:53.490Z,15.26
2022-09-20T12:37:24.402Z,15.28
2022-09-20T12:39:30.253Z,15.52
2022-09-20T12:41:50.425Z,15.28
2022-09-20T12:44:03.246Z,15.17
2022-09-20T12:46:11.827Z,15.28
2022-09-20T12:48:20.421Z,15.29
2022-09-20T12:50:41.891Z,15.23
2022-09-20T12:52:54.095Z,15.10
2022-09-20T12:55:00.969Z,15.02
2022-09-20T12:57:28.116Z,15.01
2022-09-20T12:59:31.056Z,15.03
2022-09-20T13:01:38.103Z,15.05
2022-09-20T13:03:42.906Z,14.97
2022-09-20T13:05:47.402Z,15.06
2022-09-20T13:08:00.268Z,15.09
2022-09-20T13:10:16.380Z,15.06
2022-09-20T13:12:20.557Z,15.13
2022-09-20T13:14:26.111Z,15.24
2022-09-20T13:16:33.150Z,15.14
2022-09-20T13:18:37.853Z,15.09
2022-09-20T13:20:43.146Z,15.13
2022-09-20T13:22:47.069Z,15.23
2022-09-20T13:24:55.067Z,15.39
2022-09-20T13:27:04.248Z,15.41
2022-09-20T13:29:11.913Z,15.51
2022-09-20T13:31:32.537Z,15.40
2022-09-20T13:33:35.421Z,15.59
2022-09-20T13:35:40.104Z,15.69
2022-09-20T13:37:47.646Z,15.53
2022-09-20T13:39:54.460Z,15.41
2022-09-20T13:42:02.989Z,15.39
2022-09-20T13:44:05.792Z,15.36
2022-09-20T13:46:11.521Z,15.33
2022-09-20T13:48:14.298Z,15.18
2022-09-20T13:50:21.526Z,15.23
2022-09-20T13:52:27.128Z,15.12
2022-09-20T13:54:32.721Z,15.10
2022-09-20T13:56:36.143Z,15.05
2022-09-20T13:58:39.268Z,15.07
2022-09-20T14:00:47.832Z,15.04
2022-09-20T14:02:53.623Z,14.88
2022-09-20T14:04:58.796Z,14.89
2022-09-20T14:07:02.900Z,14.89
2022-09-20T14:09:11.311Z,14.79
2022-09-20T14:11:17.633Z,14.87
2022-09-20T14:13:21.434Z,14.87
2022-09-20T14:15:24.980Z,14.90
2022-09-20T14:17:33.208Z,14.94
2022-09-20T14:19:41.583Z,14.98
2022-09-20T14:21:48.441Z,14.95
2022-09-20T14:23:53.483Z,15.05
2022-09-20T14:26:22.350Z,15.04
2022-09-20T14:28:28.956Z,15.16
2022-09-20T14:30:35.094Z,15.31
2022-09-20T14:32:40.867Z,15.30
2022-09-20T14:34:47.291Z,15.11
2022-09-20T14:36:50.962Z,15.16
2022-09-20T14:38:56.082Z,15.16
2022-09-20T14:40:58.840Z,15.19
2022-09-20T14:43:03.668Z,15.33
2022-09-20T14:45:08.402Z,15.23
2022-09-20T14:47:14.612Z,15.21
2022-09-20T14:49:22.040Z,15.32
2022-09-20T14:51:26.659Z,15.42
2022-09-20T14:53:29.543Z,15.48
2022-09-20T14:55:37.091Z,15.39
2022-09-20T14:57:42.188Z,15.48
2022-09-20T14:59:46.022Z,15.70
2022-09-20T15:02:03.944Z,15.54
2022-09-20T15:04:09.537Z,15.42
2022-09-20T15:06:14.205Z,15.41
2022-09-20T15:08:19.737Z,15.25
2022-09-20T15:10:22.750Z,15.41
2022-09-20T15:12:25.572Z,15.35
2022-09-20T15:14:28.394Z,15.60
2022-09-20T15:16:31.607Z,15.43
2022-09-20T15:18:40.298Z,15.46
2022-09-20T15:20:43.192Z,15.58
2022-09-20T15:22:45.914Z,15.50
2022-09-20T15:24:50.065Z,15.44
2022-09-20T15:26:52.847Z,15.34
2022-09-20T15:28:55.669Z,15.19
2022-09-20T15:30:59.573Z,15.38
2022-09-20T15:33:03.269Z,15.32
2022-09-20T15:35:07.260Z,15.26
2022-09-20T15:37:10.006Z,15.20
2022-09-20T15:39:13.024Z,15.15
2022-09-20T15:41:17.097Z,15.24
2022-09-20T15:43:23.970Z,15.18
2022-09-20T15:45:28.032Z,15.35
2022-09-20T15:47:31.808Z,15.27
2022-09-20T15:49:35.104Z,15.30
2022-09-20T15:51:39.055Z,15.27
2022-09-20T15:53:44.642Z,15.43
2022-09-20T15:55:47.423Z,15.33
2022-09-20T15:57:51.496Z,15.25
2022-09-20T15:59:54.225Z,15.16
2022-09-20T16:01:57.050Z,15.25
2022-09-20T16:04:00.125Z,15.21
2022-09-20T16:06:05.200Z,15.27
2022-09-20T16:08:07.979Z,15.40
2022-09-20T16:10:11.009Z,15.36
2022-09-20T16:12:13.805Z,15.31
2022-09-20T16:14:17.947Z,15.24
2022-09-20T16:16:20.896Z,15.22
2022-09-20T16:18:41.455Z,15.20
2022-09-20T16:20:44.201Z,15.28
2022-09-20T16:22:46.980Z,15.26
2022-09-20T16:24:49.765Z,15.20
2022-09-20T16:26:52.531Z,15.18
2022-09-20T16:28:56.139Z,15.21
2022-09-20T16:31:01.115Z,15.25
2022-09-20T16:33:05.496Z,15.17
2022-09-20T16:35:08.778Z,15.19
2022-09-20T16:37:15.757Z,15.16
2022-09-20T16:39:20.156Z,15.17
2022-09-20T16:41:23.430Z,15.16
2022-09-20T16:43:26.375Z,15.15
2022-09-20T16:45:29.362Z,15.16
2022-09-20T16:47:33.503Z,15.14
2022-09-20T16:49:36.561Z,15.10
2022-09-20T16:51:41.089Z,15.07
2022-09-20T16:53:45.097Z,15.06
2022-09-20T16:55:48.903Z,15.17
2022-09-20T16:57:51.932Z,15.15
2022-09-20T16:59:55.731Z,15.19
2022-09-20T17:01:58.854Z,15.12
2022-09-20T17:04:05.072Z,15.07
2022-09-20T17:06:09.465Z,15.08
2022-09-20T17:08:12.297Z,15.22
2022-09-20T17:10:15.195Z,15.17
2022-09-20T17:12:21.905Z,15.11
2022-09-20T17:14:25.396Z,15.05
2022-09-20T17:16:30.526Z,15.00
2022-09-20T17:18:34.106Z,15.08
2022-09-20T17:20:40.461Z,15.03
2022-09-20T17:22:43.353Z,14.98
2022-09-20T17:24:46.056Z,14.98
2022-09-20T17:26:50.262Z,14.96
2022-09-20T17:28:56.313Z,14.93
2022-09-20T17:31:01.746Z,14.81
2022-09-20T17:33:05.026Z,14.84
2022-09-20T17:35:08.444Z,14.79
2022-09-20T17:37:12.591Z,14.81
2022-09-20T17:39:16.571Z,14.87
2022-09-20T17:41:20.850Z,14.86
2022-09-20T17:43:23.750Z,14.76
2022-09-20T17:45:26.511Z,14.80
2022-09-20T17:47:29.208Z,14.77
2022-09-20T17:49:31.991Z,14.67
2022-09-20T17:51:36.539Z,14.63
2022-09-20T17:53:40.733Z,14.55
2022-09-20T17:55:43.538Z,14.55
2022-09-20T17:57:47.038Z,14.49
2022-09-20T17:59:49.794Z,14.60
2022-09-20T18:01:54.176Z,14.48
2022-09-20T18:03:59.200Z,14.45
2022-09-20T18:06:07.759Z,14.42
2022-09-20T18:08:10.541Z,14.38
2022-09-20T18:10:15.600Z,14.40
2022-09-20T18:12:21.357Z,14.39
2022-09-20T18:14:27.251Z,14.38
2022-09-20T18:16:30.843Z,14.35
2022-09-20T18:18:33.991Z,14.29
2022-09-20T18:20:36.747Z,14.23
2022-09-20T18:22:39.591Z,14.18
2022-09-20T18:24:42.417Z,14.13
2022-09-20T18:26:46.547Z,14.10
2022-09-20T18:28:52.571Z,14.07
2022-09-20T18:31:03.158Z,14.03
2022-09-20T18:33:08.119Z,13.98
2022-09-20T18:35:10.979Z,13.94
2022-09-20T18:37:14.881Z,13.92
2022-09-20T18:39:17.835Z,13.89
2022-09-20T18:41:21.614Z,13.87
2022-09-20T18:43:25.846Z,13.86
2022-09-20T18:45:28.696Z,13.82
2022-09-20T18:47:31.870Z,13.84
2022-09-20T18:49:34.636Z,13.86
2022-09-20T18:51:40.091Z,13.90
2022-09-20T18:53:43.345Z,13.91
2022-09-20T18:55:46.632Z,13.90
2022-09-20T18:57:49.779Z,13.91
2022-09-20T19:00:00.610Z,13.93
2022-09-20T19:02:16.862Z,13.89
2022-09-20T19:04:53.129Z,13.92
2022-09-20T19:07:04.732Z,13.91
2022-09-20T19:09:17.372Z,13.90
2022-09-20T19:11:31.512Z,13.89
2022-09-20T19:13:41.073Z,13.90
2022-09-20T19:16:03.364Z,13.89
2022-09-20T19:18:26.448Z,13.89
2022-09-20T19:20:35.906Z,13.87
2022-09-20T19:22:52.715Z,13.89
2022-09-20T19:25:09.206Z,13.85
2022-09-20T19:27:13.555Z,13.81
2022-09-20T19:29:20.307Z,13.77
2022-09-20T19:31:27.279Z,13.69
2022-09-20T19:33:30.583Z,13.68
2022-09-20T19:35:39.184Z,13.64
2022-09-20T19:37:51.675Z,13.60
2022-09-20T19:40:04.857Z,13.57
2022-09-20T19:42:19.885Z,13.52
2022-09-20T19:44:34.205Z,13.48
2022-09-20T19:46:50.445Z,13.46
2022-09-20T19:49:07.326Z,13.45
2022-09-20T19:51:12.579Z,13.48
2022-09-20T19:53:17.782Z,13.44
2022-09-20T19:55:21.243Z,13.47
2022-09-20T19:57:29.373Z,13.47
2022-09-20T19:59:33.354Z,13.45
2022-09-20T20:01:36.739Z,13.36
2022-09-20T20:03:41.944Z,13.31
2022-09-20T20:05:53.984Z,13.30
2022-09-20T20:08:12.791Z,13.22
2022-09-20T20:10:24.828Z,13.18
2022-09-20T20:12:35.207Z,13.12
2022-09-20T20:14:48.916Z,13.13
2022-09-20T20:17:03.771Z,13.14
2022-09-20T20:19:22.910Z,13.13
2022-09-20T20:21:36.144Z,13.10
2022-09-20T20:24:00.808Z,13.12
2022-09-20T20:26:10.025Z,13.13
2022-09-20T20:28:12.771Z,13.12
2022-09-20T20:30:15.685Z,13.12
2022-09-20T20:32:18.549Z,13.10
2022-09-20T20:34:22.835Z,13.08
2022-09-20T20:36:25.619Z,13.02
2022-09-20T20:38:31.928Z,13.00
2022-09-20T20:40:34.645Z,12.97
2022-09-20T20:42:37.466Z,12.97
2022-09-20T20:44:41.069Z,12.95
2022-09-20T20:46:43.903Z,13.02
2022-09-20T20:48:47.730Z,12.96
2022-09-20T20:51:01.843Z,12.96
2022-09-20T20:53:06.669Z,12.98
2022-09-20T20:55:10.654Z,13.00
2022-09-20T20:57:15.931Z,13.02
2022-09-20T20:59:18.726Z,13.05
2022-09-20T21:01:22.964Z,13.08
2022-09-20T21:03:25.758Z,13.04
2022-09-20T21:05:29.283Z,13.07
2022-09-20T21:07:33.409Z,13.08
2022-09-20T21:09:36.252Z,13.04
2022-09-20T21:11:43.599Z,13.05
2022-09-20T21:13:48.287Z,13.04
2022-09-20T21:15:50.936Z,12.92
2022-09-20T21:17:54.916Z,12.97
2022-09-20T21:19:57.632Z,13.00
2022-09-20T21:22:00.318Z,13.03
2022-09-20T21:24:06.543Z,13.04
2022-09-20T21:26:12.437Z,13.05
2022-09-20T21:28:15.219Z,13.04
2022-09-20T21:30:18.012Z,13.00
2022-09-20T21:32:21.034Z,13.00
2022-09-20T21:34:23.781Z,12.98
2022-09-20T21:36:28.461Z,12.96
2022-09-20T21:38:33.747Z,12.77
2022-09-20T21:40:38.215Z,12.80
2022-09-20T21:42:41.089Z,12.83
2022-09-20T21:44:43.846Z,12.85
2022-09-20T21:46:48.315Z,12.82
2022-09-20T21:48:51.428Z,12.82
2022-09-20T21:51:05.120Z,12.85
2022-09-20T21:53:07.912Z,12.80
2022-09-20T21:55:10.847Z,12.74
2022-09-20T21:57:15.390Z,12.73
2022-09-20T21:59:18.520Z,12.71
2022-09-20T22:01:23.234Z,12.71
2022-09-20T22:03:25.965Z,12.56
2022-09-20T22:05:28.741Z,12.62
2022-09-20T22:07:31.632Z,12.64
2022-09-20T22:09:34.318Z,12.65
2022-09-20T22:11:39.938Z,12.66
2022-09-20T22:13:45.565Z,12.66
2022-09-20T22:15:48.369Z,12.63
2022-09-20T22:17:51.178Z,12.66
2022-09-20T22:19:53.948Z,12.63
2022-09-20T22:21:56.702Z,12.65
2022-09-20T22:24:01.453Z,12.65
2022-09-20T22:26:05.072Z,12.51
2022-09-20T22:28:07.827Z,12.58
2022-09-20T22:30:13.440Z,12.64
2022-09-20T22:32:16.167Z,12.62
2022-09-20T22:34:21.217Z,12.61
2022-09-20T22:36:26.332Z,12.56
2022-09-20T22:38:30.454Z,12.57
2022-09-20T22:40:33.341Z,12.55
2022-09-20T22:42:36.212Z,12.55
2022-09-20T22:44:38.937Z,12.53
2022-09-20T22:46:43.450Z,12.53
2022-09-20T22:48:46.612Z,12.47
2022-09-20T22:50:49.394Z,12.47
2022-09-20T22:52:52.118Z,12.43
2022-09-20T22:54:54.800Z,12.38
2022-09-20T22:56:57.547Z,12.31
2022-09-20T22:59:04.710Z,12.29
2022-09-20T23:01:09.599Z,12.28
2022-09-20T23:03:13.696Z,12.24
2022-09-20T23:05:18.057Z,12.16
2022-09-20T23:07:20.822Z,12.13
2022-09-20T23:09:26.214Z,12.17
2022-09-20T23:11:30.312Z,12.14
2022-09-20T23:13:33.401Z,12.11
2022-09-20T23:15:36.199Z,12.10
2022-09-20T23:17:41.976Z,12.05
2022-09-20T23:19:46.032Z,11.96
2022-09-20T23:21:48.767Z,11.86
2022-09-20T23:23:54.346Z,11.86
2022-09-20T23:26:03.650Z,11.85
2022-09-20T23:28:06.396Z,11.78
2022-09-20T23:30:09.795Z,11.77
2022-09-20T23:32:12.552Z,11.77
2022-09-20T23:34:17.205Z,11.78
2022-09-20T23:36:22.164Z,11.72
2022-09-20T23:38:25.092Z,11.68
2022-09-20T23:40:29.393Z,11.65
2022-09-20T23:42:32.222Z,11.53
2022-09-20T23:44:35.026Z,11.53
2022-09-20T23:46:38.739Z,11.48
2022-09-20T23:48:42.550Z,11.46
2022-09-20T23:50:45.350Z,11.45
2022-09-20T23:52:49.500Z,11.44
2022-09-20T23:54:52.231Z,11.40
2022-09-20T23:56:54.945Z,11.43
2022-09-20T23:58:57.821Z,11.47
